Time;durP1;ratioP1;P1;durP2;ratioP2;P2;SDS_P1;SDS_P2;PMS_P1;PMS_P2;Temp;Humidity;BMP_temperature;BMP_pressure;BME280_temperature;BME280_humidity;BME280_pressure;Samples;Min_cycle;Max_cycle;Signal;HPM_P1;HPM_P2
2022/09/05 00:02:03;;;;;;;3.50;2.83;;;;;;;17.37;83.40;101070.22;1461116;88;22134;-84
2022/09/05 00:05:17;;;;;;;2.93;2.47;;;;;;;17.35;82.93;101066.41;1481371;87;21624;-81
2022/09/05 00:08:05;;;;;;;5.63;2.70;;;;;;;17.35;82.67;101069.59;1466972;87;21470;-82
2022/09/05 00:10:59;;;;;;;4.53;3.53;;;;;;;17.29;81.56;101074.28;1474087;87;21544;-83
2022/09/05 00:13:30;;;;;;;3.13;2.40;;;;;;;17.28;81.57;101073.96;1492664;86;21536;-82
2022/09/05 00:16:17;;;;;;;2.90;2.23;;;;;;;17.26;81.77;101075.48;1490486;86;21570;-80
2022/09/05 00:19:25;;;;;;;3.10;2.10;;;;;;;17.25;81.68;101074.31;1470318;88;21507;-83
2022/09/05 00:21:59;;;;;;;7.10;2.30;;;;;;;17.25;81.48;101075.65;1439295;90;21678;-82
2022/09/05 00:24:46;;;;;;;3.07;2.60;;;;;;;17.26;81.21;101075.97;1411031;90;21468;-81
2022/09/05 00:27:40;;;;;;;4.10;2.33;;;;;;;17.25;80.39;101078.33;1419222;90;21497;-82
2022/09/05 00:30:17;;;;;;;2.97;2.00;;;;;;;17.23;79.96;101070.46;1444697;89;22290;-82
2022/09/05 00:33:10;;;;;;;4.07;2.20;;;;;;;17.23;79.90;101070.46;1453308;89;22336;-82
2022/09/05 00:35:51;;;;;;;5.73;2.20;;;;;;;17.21;79.62;101065.81;1496022;85;21425;-81
2022/09/05 00:38:20;;;;;;;;;;;;;;;17.19;79.22;101064.31;1517124;85;21470;-81
2022/09/05 00:40:55;;;;;;;3.00;1.63;;;;;;;17.17;78.47;101067.66;1488963;85;20301;-81
2022/09/05 00:43:33;;;;;;;2.17;1.97;;;;;;;17.18;78.95;101073.36;1491807;86;21433;-80
2022/09/05 00:46:04;;;;;;;4.57;1.50;;;;;;;17.18;78.60;101065.34;1495562;86;21463;-82
2022/09/05 00:49:02;;;;;;;4.60;2.07;;;;;;;17.15;78.32;101065.18;1474419;87;22386;-83
2022/09/05 00:52:00;;;;;;;1.90;1.63;;;;;;;17.14;78.19;101064.32;1495274;87;21440;-82
2022/09/05 00:54:59;;;;;;;3.77;2.10;;;;;;;17.13;78.38;101066.68;1482066;87;21546;-81
2022/09/05 00:57:52;;;;;;;5.03;2.50;;;;;;;17.08;77.86;101063.69;1477400;86;21473;-82
2022/09/05 01:00:35;;;;;;;2.17;1.70;;;;;;;17.05;78.05;101061.37;1470324;88;21596;-81
2022/09/05 01:03:27;;;;;;;2.20;1.87;;;;;;;17.01;78.15;101065.41;1479811;87;21477;-82
2022/09/05 01:06:35;;;;;;;6.30;2.10;;;;;;;17.01;78.34;101077.95;1501318;86;22289;-82
2022/09/05 01:09:22;;;;;;;4.40;2.27;;;;;;;17.00;77.99;101077.60;1499284;86;21484;-82
2022/09/05 01:12:09;;;;;;;3.90;2.10;;;;;;;17.01;77.68;101084.13;1490801;85;21484;-81
2022/09/05 01:14:50;;;;;;;3.90;1.80;;;;;;;16.97;77.40;101072.09;1451663;88;21521;-82
2022/09/05 01:18:03;;;;;;;3.33;1.70;;;;;;;16.94;77.18;101076.45;1491155;85;21384;-81
2022/09/05 01:20:49;;;;;;;2.50;1.80;;;;;;;16.92;77.24;101073.14;1496879;87;21730;-81
2022/09/05 01:23:36;;;;;;;3.30;1.77;;;;;;;16.93;77.82;101071.30;1496615;86;21493;-81
2022/09/05 01:26:30;;;;;;;1.80;1.67;;;;;;;16.93;77.66;101069.45;1476278;87;21663;-82
2022/09/05 01:29:20;;;;;;;5.60;2.03;;;;;;;16.94;77.51;101071.11;1485013;87;22372;-81
2022/09/05 01:32:17;;;;;;;4.10;1.90;;;;;;;16.95;77.23;101072.79;1468645;88;21625;-79
2022/09/05 01:34:57;;;;;;;4.20;1.50;;;;;;;16.95;77.05;101075.98;1471834;88;22336;-78
2022/09/05 01:37:45;;;;;;;2.08;1.87;;;;;;;16.94;76.97;101066.27;1471613;88;21501;-83
2022/09/05 01:40:54;;;;;;;4.53;1.90;;;;;;;16.91;77.50;101058.91;1469268;88;21515;-82
2022/09/05 01:44:12;;;;;;;4.03;1.90;;;;;;;16.93;77.84;101068.63;1469298;88;22302;-82
2022/09/05 01:47:02;;;;;;;2.10;1.83;;;;;;;16.93;77.98;101073.46;1471423;87;21521;-82
2022/09/05 01:49:56;;;;;;;1.72;1.60;;;;;;;16.93;77.88;101064.10;1477716;87;21508;-80
2022/09/05 01:53:24;;;;;;;3.23;2.00;;;;;;;16.91;77.89;101056.24;1487343;87;21662;-83
2022/09/05 01:56:15;;;;;;;4.03;2.10;;;;;;;16.89;77.85;101056.11;1471527;88;21471;-82
2022/09/05 01:59:01;;;;;;;3.80;2.37;;;;;;;16.76;77.87;101065.14;1539224;83;21525;-81
2022/09/05 02:02:01;;;;;;;3.20;1.83;;;;;;;16.66;78.30;101064.02;1533579;84;21374;-81
2022/09/05 02:05:01;;;;;;;1.93;1.50;;;;;;;16.60;78.57;101070.87;1525690;84;21506;-82
2022/09/05 02:08:00;;;;;;;4.62;1.85;;;;;;;16.58;78.58;101075.55;1514085;85;21403;-80
2022/09/05 02:10:56;;;;;;;3.33;1.97;;;;;;;16.54;78.59;101070.20;1518886;85;21543;-84
2022/09/05 02:13:36;;;;;;;2.23;1.70;;;;;;;16.51;78.98;101069.20;1514881;85;21469;-79
2022/09/05 02:16:35;;;;;;;7.30;2.63;;;;;;;16.45;79.39;101060.55;1504432;85;21389;-80
2022/09/05 02:19:13;;;;;;;2.47;1.80;;;;;;;16.40;79.69;101065.55;1491737;87;21507;-81
2022/09/05 02:21:51;;;;;;;7.40;2.53;;;;;;;16.36;79.82;101064.23;1498194;87;21433;-81
2022/09/05 02:24:38;;;;;;;4.00;1.43;;;;;;;16.33;79.86;101065.92;1491621;87;22358;-74
2022/09/05 02:27:32;;;;;;;4.47;1.60;;;;;;;16.26;79.61;101068.44;1502030;86;21492;-83
2022/09/05 02:30:21;;;;;;;4.27;1.80;;;;;;;16.21;79.24;101066.77;1497409;85;21411;-82
2022/09/05 02:33:14;;;;;;;7.43;2.37;;;;;;;16.16;79.72;101067.77;1473406;88;21463;-85
2022/09/05 02:36:06;;;;;;;2.27;1.77;;;;;;;16.08;79.90;101066.44;1465762;87;22202;-83
2022/09/05 02:38:46;;;;;;;4.83;2.43;;;;;;;16.03;80.11;101064.30;1464675;87;21485;-84
2022/09/05 02:41:47;;;;;;;2.47;1.52;;;;;;;16.00;80.79;101063.30;1503493;85;21484;-85
2022/09/05 02:44:19;;;;;;;;;;;;;;;15.98;80.72;101065.29;1507372;86;21654;-83
2022/09/05 02:46:57;;;;;;;1.83;1.70;;;;;;;15.97;80.83;101068.97;1498668;86;20323;-85
2022/09/05 02:50:05;;;;;;;3.93;1.90;;;;;;;15.95;80.57;101062.95;1499888;86;22184;-84
2022/09/05 02:52:34;;;;;;;3.30;1.63;;;;;;;15.93;80.74;101058.27;1481815;87;21529;-84
2022/09/05 02:55:03;;;;;;;3.43;1.80;;;;;;;15.86;80.59;101057.29;1502730;85;21425;-83
2022/09/05 02:58:01;;;;;;;2.57;1.80;;;;;;;15.81;80.69;101060.45;1487794;86;22283;-81
2022/09/05 03:00:44;;;;;;;1.93;1.73;;;;;;;15.76;80.95;101054.77;1477659;87;22413;-80
2022/09/05 03:03:34;;;;;;;1.80;1.60;;;;;;;15.69;81.63;101053.27;1473212;88;22559;-77
2022/09/05 03:06:24;;;;;;;2.00;1.77;;;;;;;15.65;81.31;101057.72;1466754;87;21463;-79
2022/09/05 03:09:01;;;;;;;6.17;2.02;;;;;;;15.58;81.92;101054.89;1475902;88;21715;-80
2022/09/05 03:11:39;;;;;;;3.80;1.77;;;;;;;15.51;82.58;101055.23;1470630;88;21492;-83
2022/09/05 03:14:26;;;;;;;2.70;2.43;;;;;;;15.44;83.25;101059.53;1470061;87;21419;-82
2022/09/05 03:17:16;;;;;;;2.30;1.70;;;;;;;15.41;82.93;101065.20;1458696;88;22329;-80
2022/09/05 03:20:31;;;;;;;2.43;1.70;;;;;;;15.39;83.35;101062.69;1435725;88;22462;-80
2022/09/05 03:23:46;;;;;;;4.00;1.97;;;;;;;15.41;83.41;101058.53;1475917;86;22012;-83
2022/09/05 03:26:30;;;;;;;2.93;2.47;;;;;;;15.41;83.85;101072.70;1491552;86;21521;-83
2022/09/05 03:29:19;;;;;;;2.47;1.60;;;;;;;15.40;83.69;101071.55;1496692;86;22282;-81
2022/09/05 03:32:03;;;;;;;2.27;1.90;;;;;;;15.41;83.88;101070.03;1500887;86;21521;-82
2022/09/05 03:34:38;;;;;;;4.57;2.27;;;;;;;15.44;83.68;101078.21;1474522;88;21478;-81
2022/09/05 03:37:21;;;;;;;2.67;1.60;;;;;;;15.43;83.96;101073.88;1463040;87;21458;-82
2022/09/05 03:40:35;;;;;;;3.37;2.00;;;;;;;15.43;84.25;101080.05;1443288;89;22032;-81
2022/09/05 03:43:29;;;;;;;2.23;1.60;;;;;;;15.46;84.35;101084.22;1505210;85;21440;-82
2022/09/05 03:46:38;;;;;;;3.10;1.70;;;;;;;15.48;83.85;101083.57;1504571;86;21374;-82
2022/09/05 03:49:25;;;;;;;3.13;2.27;;;;;;;15.47;83.59;101086.71;1471547;86;21609;-80
2022/09/05 03:52:34;;;;;;;2.13;1.90;;;;;;;15.48;83.49;101087.57;1500348;85;22440;-81
2022/09/05 03:55:31;;;;;;;3.07;1.83;;;;;;;15.47;83.59;101092.05;1504973;85;22529;-79
2022/09/05 03:58:19;;;;;;;2.23;1.60;;;;;;;15.49;83.87;101091.39;1476376;86;21543;-81
2022/09/05 04:01:06;;;;;;;2.70;1.80;;;;;;;15.53;83.94;101095.89;1496645;85;21396;-82
2022/09/05 04:03:43;;;;;;;5.37;1.90;;;;;;;15.55;83.78;101093.91;1496371;86;21552;-82
2022/09/05 04:06:26;;;;;;;2.57;1.77;;;;;;;15.58;84.13;101100.25;1507456;85;21440;-84
2022/09/05 04:09:10;;;;;;;3.67;1.77;;;;;;;15.59;84.13;101103.23;1496231;84;21544;-82
2022/09/05 04:11:47;;;;;;;2.10;1.90;;;;;;;15.59;83.76;101103.23;1509362;86;21426;-80
2022/09/05 04:14:30;;;;;;;2.70;2.20;;;;;;;15.63;84.24;101105.94;1505848;85;21426;-83
2022/09/05 04:17:05;;;;;;;2.10;1.83;;;;;;;15.66;84.64;101109.61;1494628;86;21337;-82
2022/09/05 04:19:45;;;;;;;2.13;1.70;;;;;;;15.69;84.61;101111.97;1508871;86;21470;-84
2022/09/05 04:22:42;;;;;;;3.60;2.45;;;;;;;15.72;84.41;101113.48;1515184;85;21640;-84
2022/09/05 04:25:19;;;;;;;3.97;2.50;;;;;;;15.74;83.91;101117.66;1498276;86;21418;-80
2022/09/05 04:28:21;;;;;;;7.83;2.40;;;;;;;15.75;83.59;101125.16;1500808;86;21621;-83
2022/09/05 04:30:59;;;;;;;4.83;2.30;;;;;;;15.74;83.13;101124.33;1483537;86;21492;-79
2022/09/05 04:33:36;;;;;;;2.40;1.73;;;;;;;15.73;83.21;101131.98;1507473;85;21522;-81
2022/09/05 04:36:29;;;;;;;2.60;1.43;;;;;;;15.73;83.42;101129.31;1470946;88;22420;-78
2022/09/05 04:39:20;;;;;;;9.63;2.80;;;;;;;15.75;83.91;101127.33;1507717;85;21507;-79
2022/09/05 04:42:20;;;;;;;2.93;1.70;;;;;;;15.74;84.26;101131.52;1466742;88;21479;-78
2022/09/05 04:45:16;;;;;;;1.83;1.63;;;;;;;15.76;83.96;101136.16;1517761;85;21646;-80
2022/09/05 04:47:49;;;;;;;4.37;1.70;;;;;;;15.78;83.10;101135.00;1492602;86;21528;-82
2022/09/05 04:50:20;;;;;;;4.40;1.60;;;;;;;15.84;82.64;101146.03;1496211;85;21517;-81
2022/09/05 04:53:16;;;;;;;4.83;2.10;;;;;;;15.90;82.56;101148.03;1495105;83;21397;-81
2022/09/05 04:55:47;;;;;;;2.13;1.70;;;;;;;15.95;82.34;101140.38;1485499;86;22435;-93
2022/09/05 04:58:33;;;;;;;3.58;1.40;;;;;;;16.02;82.02;101149.37;1521218;85;22571;-92
2022/09/05 05:01:25;;;;;;;3.00;1.73;;;;;;;16.09;81.60;101156.24;1532777;85;21547;-85
2022/09/05 05:03:52;;;;;;;1.93;1.80;;;;;;;16.19;81.25;101155.05;1515315;85;21440;-87
2022/09/05 05:06:32;;;;;;;2.47;1.73;;;;;;;16.31;79.26;101164.08;1486737;87;22306;-92
2022/09/05 05:09:16;;;;;;;4.53;2.40;;;;;;;16.40;79.19;101164.40;1482743;87;21506;-87
2022/09/05 05:11:56;;;;;;;5.80;1.80;;;;;;;16.50;78.97;101171.75;1479851;87;21565;-91
2022/09/05 05:14:45;;;;;;;2.83;2.27;;;;;;;16.59;78.71;101171.25;1480428;87;21462;-91
2022/09/05 05:17:43;;;;;;;2.10;1.80;;;;;;;16.64;78.43;101168.40;1494310;87;22570;-90
2022/09/05 05:20:31;;;;;;;2.23;1.73;;;;;;;16.70;78.67;101175.73;1485541;87;21551;-89
2022/09/05 05:23:11;;;;;;;5.73;1.93;;;;;;;16.76;78.77;101180.08;1485722;87;21463;-87
2022/09/05 05:25:46;;;;;;;1.80;1.70;;;;;;;16.83;78.61;101185.95;1490641;87;21558;-91
2022/09/05 05:28:21;;;;;;;3.90;1.80;;;;;;;16.90;77.89;101185.59;1483719;87;21469;-89
2022/09/05 05:30:47;;;;;;;5.10;1.67;;;;;;;16.97;77.12;101184.39;1484576;87;21684;-89
2022/09/05 05:33:24;;;;;;;3.10;1.40;;;;;;;16.97;75.13;101184.39;1488880;87;22483;-90
2022/09/05 05:35:51;;;;;;;3.17;1.70;;;;;;;17.03;75.10;101181.54;1479991;87;21506;-88
2022/09/05 05:38:32;;;;;;;2.70;2.00;;;;;;;17.10;74.49;101190.05;1485091;86;21604;-91
2022/09/05 05:41:30;;;;;;;3.97;1.60;;;;;;;17.20;75.01;101191.69;1494792;86;21440;-89
2022/09/05 05:43:57;;;;;;;2.80;2.00;;;;;;;17.29;74.04;101193.33;1493956;87;21536;-87
2022/09/05 05:46:37;;;;;;;2.83;1.77;;;;;;;17.42;74.15;101196.30;1494571;87;21559;-85
2022/09/05 05:49:14;;;;;;;8.57;4.27;;;;;;;17.54;73.58;101202.92;1494114;87;21537;-89
2022/09/05 05:51:52;;;;;;;14.37;5.93;;;;;;;17.60;72.53;101200.88;1491163;87;22230;-87
2022/09/05 05:54:32;;;;;;;10.33;6.77;;;;;;;17.60;70.59;101201.39;1483306;87;21537;-86
2022/09/05 05:57:26;;;;;;;16.07;7.83;;;;;;;17.63;71.70;101201.55;1494357;87;22357;-87
2022/09/05 06:00:14;;;;;;;6.40;4.20;;;;;;;17.71;71.89;101206.87;1498839;86;21500;-85
2022/09/05 06:03:07;;;;;;;3.33;2.40;;;;;;;17.74;70.33;101199.82;1497442;87;21618;-86
2022/09/05 06:05:55;;;;;;;2.73;2.00;;;;;;;17.81;69.13;101195.48;1490854;87;21611;-85
2022/09/05 06:08:42;;;;;;;6.07;2.20;;;;;;;17.92;69.78;101205.76;1488920;87;21353;-85
2022/09/05 06:11:58;;;;;;;2.57;2.13;;;;;;;17.94;70.13;101206.42;1450390;87;22430;-85
2022/09/05 06:14:50;;;;;;;2.17;1.50;;;;;;;18.03;69.89;101210.72;1495305;87;21582;-86
2022/09/05 06:17:37;;;;;;;1.97;1.60;;;;;;;18.16;69.04;101210.14;1484568;87;22349;-87
2022/09/05 06:20:24;;;;;;;3.43;1.90;;;;;;;18.25;68.13;101213.59;1490049;87;22497;-86
2022/09/05 06:23:22;;;;;;;3.70;1.83;;;;;;;18.32;67.28;101211.85;1493711;87;21515;-85
2022/09/05 06:25:57;;;;;;;3.60;1.50;;;;;;;18.33;66.95;101215.39;1493231;87;22312;-80
2022/09/05 06:28:29;;;;;;;10.97;3.20;;;;;;;18.34;67.19;101217.88;1492003;87;21433;-82
2022/09/05 06:31:29;;;;;;;5.43;2.10;;;;;;;18.30;66.78;101224.62;1494479;87;22438;-81
2022/09/05 06:34:22;;;;;;;6.90;1.85;;;;;;;18.32;66.91;101224.42;1497514;87;21485;-81
2022/09/05 06:37:09;;;;;;;4.97;1.80;;;;;;;18.30;66.48;101222.42;1490986;87;21411;-84
2022/09/05 06:40:20;;;;;;;5.00;1.70;;;;;;;18.34;66.84;101221.89;1475205;86;22422;-83
2022/09/05 06:43:10;;;;;;;5.17;2.43;;;;;;;18.38;66.25;101227.20;1489506;86;21521;-84
2022/09/05 06:46:03;;;;;;;2.95;2.50;;;;;;;18.47;66.96;101228.84;1482322;87;22689;-83
2022/09/05 06:48:53;;;;;;;1.97;1.77;;;;;;;18.52;66.59;101228.27;1490444;87;21478;-83
2022/09/05 06:52:07;;;;;;;4.08;1.95;;;;;;;18.54;66.38;101230.28;1495187;87;21448;-84
2022/09/05 06:55:12;;;;;;;5.60;1.85;;;;;;;18.60;67.15;101232.23;1495032;86;21581;-84
2022/09/05 06:57:50;;;;;;;1.60;1.40;;;;;;;18.70;67.17;101235.52;1429701;91;22375;-84
2022/09/05 07:00:39;;;;;;;2.83;1.80;;;;;;;18.86;67.21;101243.93;1448776;89;21608;-85
2022/09/05 07:03:26;;;;;;;7.10;2.33;;;;;;;18.92;64.99;101238.34;1452373;89;22572;-83
2022/09/05 07:06:10;;;;;;;1.62;1.47;;;;;;;19.14;64.86;101252.20;1449839;89;22408;-85
2022/09/05 07:09:06;;;;;;;4.00;1.95;;;;;;;19.26;63.99;101247.22;1461241;89;21553;-85
2022/09/05 07:11:57;;;;;;;1.98;1.77;;;;;;;19.26;62.46;101253.09;1457781;89;21667;-83
2022/09/05 07:14:40;;;;;;;3.77;1.80;;;;;;;19.28;62.68;101249.22;1458200;89;22422;-83
2022/09/05 07:17:14;;;;;;;4.62;1.95;;;;;;;19.35;62.82;101254.15;1458616;89;21622;-83
2022/09/05 07:19:58;;;;;;;9.28;1.80;;;;;;;19.52;62.61;101247.25;1456811;89;21531;-82
2022/09/05 07:22:42;;;;;;;2.12;1.90;;;;;;;19.70;61.67;101245.03;1453209;89;21560;-83
2022/09/05 07:25:12;;;;;;;5.37;1.92;;;;;;;19.91;60.09;101243.41;1455727;89;22407;-84
2022/09/05 07:27:48;;;;;;;;;;;;;;;20.04;59.20;101250.29;1463910;87;21679;-82
2022/09/05 07:30:18;;;;;;;2.92;1.82;;;;;;;20.09;60.01;101246.53;1495882;87;20905;-83
2022/09/05 07:32:49;;;;;;;5.35;2.12;;;;;;;20.08;59.27;101243.50;1490959;87;21514;-83
2022/09/05 07:35:33;;;;;;;4.15;2.27;;;;;;;19.95;58.10;101243.37;1494064;86;21614;-83
2022/09/05 07:38:12;;;;;;;1.72;1.62;;;;;;;19.93;57.20;101240.86;1504093;87;21403;-82
2022/09/05 07:40:39;;;;;;;5.10;2.10;;;;;;;19.82;56.73;101250.27;1495670;87;21521;-82
2022/09/05 07:43:21;;;;;;;5.10;2.05;;;;;;;19.81;57.98;101243.20;1489293;87;21588;-82
2022/09/05 07:46:10;;;;;;;2.77;1.95;;;;;;;19.92;58.95;101243.75;1490395;87;21469;-82
2022/09/05 07:48:47;;;;;;;2.20;1.07;;;;;;;20.13;58.46;101234.36;1478354;87;21626;-80
2022/09/05 07:51:26;;;;;;;2.75;1.52;;;;;;;20.37;58.46;101233.66;1494851;87;21455;-83
2022/09/05 07:54:06;;;;;;;2.33;2.02;;;;;;;20.58;57.87;101236.91;1495638;87;22682;-84
2022/09/05 07:56:58;;;;;;;7.67;1.98;;;;;;;20.78;55.72;101235.20;1491120;87;22029;-83
2022/09/05 07:59:28;;;;;;;2.22;1.57;;;;;;;20.97;55.09;101240.39;1497989;87;21463;-83
2022/09/05 08:01:55;;;;;;;1.95;1.72;;;;;;;21.03;53.89;101236.95;1492667;87;22379;-83
2022/09/05 08:04:28;;;;;;;2.05;1.85;;;;;;;20.97;55.43;101237.70;1484732;87;22335;-85
2022/09/05 08:07:01;;;;;;;2.75;2.02;;;;;;;20.87;55.43;101239.92;1501238;87;21626;-86
2022/09/05 08:09:35;;;;;;;3.80;2.15;;;;;;;20.83;54.40;101238.64;1496312;87;21433;-84
2022/09/05 08:12:12;;;;;;;4.08;1.72;;;;;;;21.01;54.89;101225.53;1490552;87;21500;-84
2022/09/05 08:14:59;;;;;;;1.50;1.40;;;;;;;21.01;54.89;101225.53;1488497;86;21432;-84
2022/09/05 08:17:26;;;;;;;1.60;1.50;;;;;;;20.90;53.94;101232.80;1491403;87;21603;-83
2022/09/05 08:20:07;;;;;;;1.60;1.50;;;;;;;20.70;54.46;101225.41;1491791;87;21448;-85
2022/09/05 08:22:38;;;;;;;1.70;1.60;;;;;;;20.75;55.24;101230.73;1493825;87;21529;-86
2022/09/05 08:25:17;;;;;;;1.07;0.98;;;;;;;20.91;53.92;101231.25;1491566;87;22446;-84
2022/09/05 08:28:05;;;;;;;2.87;1.40;;;;;;;21.10;51.21;101229.73;1498966;87;22364;-85
2022/09/05 08:30:55;;;;;;;1.50;1.30;;;;;;;21.34;52.13;101202.00;1494851;87;22366;-86
2022/09/05 08:33:25;;;;;;;3.85;1.52;;;;;;;21.46;51.32;101221.97;1489107;87;21448;-85
2022/09/05 08:36:08;;;;;;;1.67;1.25;;;;;;;21.62;50.90;101218.95;1499722;87;21674;-86
2022/09/05 08:38:39;;;;;;;2.27;1.32;;;;;;;21.94;51.31;101220.60;1496336;87;21500;-86
2022/09/05 08:41:25;;;;;;;;;;;;;;;22.29;49.87;101215.09;1500739;85;22365;-85
2022/09/05 08:44:03;;;;;;;2.15;1.27;;;;;;;22.49;49.73;101210.55;1489267;87;20288;-85
2022/09/05 08:46:47;;;;;;;7.03;1.50;;;;;;;22.88;50.03;101209.41;1494900;87;21456;-86
2022/09/05 08:49:51;;;;;;;4.17;1.22;;;;;;;23.10;46.20;101208.64;1491502;87;21662;-85
2022/09/05 08:52:38;;;;;;;2.02;1.45;;;;;;;23.27;46.46;101207.67;1467852;88;21635;-86
2022/09/05 08:55:33;;;;;;;3.42;1.87;;;;;;;23.24;46.69;101210.27;1475884;87;21649;-85
2022/09/05 08:58:31;;;;;;;7.95;1.60;;;;;;;23.34;48.17;101205.27;1478169;88;21560;-86
2022/09/05 09:01:32;;;;;;;2.17;1.27;;;;;;;23.27;46.88;101204.44;1469111;88;21614;-85
2022/09/05 09:04:44;;;;;;;2.85;1.77;;;;;;;23.13;47.52;101203.67;1473267;88;21539;-83
2022/09/05 09:07:41;;;;;;;2.12;1.30;;;;;;;23.02;47.17;101203.47;1470700;88;21494;-86
2022/09/05 09:10:44;;;;;;;5.62;1.35;;;;;;;22.86;47.38;101206.89;1474276;86;21487;-85
2022/09/05 09:13:36;;;;;;;2.25;1.42;;;;;;;22.92;47.40;101206.05;1467046;88;21480;-84
2022/09/05 09:16:14;;;;;;;3.70;1.30;;;;;;;23.24;48.03;101207.57;1469067;88;21538;-85
2022/09/05 09:18:48;;;;;;;2.00;1.40;;;;;;;23.42;47.86;101205.03;1468465;87;21494;-85
2022/09/05 09:21:43;;;;;;;8.60;1.40;;;;;;;23.59;46.80;101201.83;1451588;88;21473;-84
2022/09/05 09:24:30;;;;;;;2.05;1.55;;;;;;;23.50;44.95;101204.47;1467901;88;22413;-84
2022/09/05 09:27:08;;;;;;;6.00;1.22;;;;;;;23.66;46.08;101195.88;1478610;88;21466;-85
2022/09/05 09:29:38;;;;;;;2.60;1.40;;;;;;;23.69;45.30;101196.80;1469422;88;21539;-85
2022/09/05 09:32:13;;;;;;;5.50;1.32;;;;;;;23.71;45.18;101197.45;1467044;88;21628;-85
2022/09/05 09:34:56;;;;;;;0.88;0.80;;;;;;;23.70;44.82;101195.78;1474331;88;21451;-86
2022/09/05 09:37:49;;;;;;;1.42;1.12;;;;;;;23.76;43.70;101202.20;1467945;88;21450;-86
2022/09/05 09:40:29;;;;;;;2.05;0.90;;;;;;;23.73;43.18;101193.99;1474629;87;22458;-85
2022/09/05 09:43:27;;;;;;;1.47;1.35;;;;;;;24.04;43.56;101203.19;1480401;88;21397;-86
2022/09/05 09:46:17;;;;;;;1.30;1.20;;;;;;;24.29;43.28;101194.58;1473582;87;21643;-85
2022/09/05 09:49:09;;;;;;;1.32;1.02;;;;;;;24.39;41.48;101194.61;1474794;87;21448;-86
2022/09/05 09:52:18;;;;;;;1.50;1.10;;;;;;;24.52;42.04;101195.89;1471874;87;21501;-85
2022/09/05 09:55:27;;;;;;;4.47;1.20;;;;;;;24.63;43.52;101196.53;1438190;88;21536;-84
2022/09/05 09:58:24;;;;;;;4.33;1.30;;;;;;;24.70;43.91;101194.57;1469489;87;21456;-84
2022/09/05 10:01:31;;;;;;;4.70;1.15;;;;;;;24.88;43.40;101192.95;1482018;87;21463;-84
2022/09/05 10:04:33;;;;;;;4.75;0.95;;;;;;;24.83;40.63;101194.13;1476806;87;21463;-84
2022/09/05 10:07:48;;;;;;;5.00;1.20;;;;;;;24.64;40.51;101199.53;1476300;87;22372;-83
2022/09/05 10:10:35;;;;;;;2.15;1.10;;;;;;;24.68;42.48;101192.60;1479229;87;21421;-86
2022/09/05 10:13:34;;;;;;;3.65;1.50;;;;;;;24.53;41.00;101194.83;1480266;88;21553;-85
2022/09/05 10:16:27;;;;;;;1.22;1.12;;;;;;;24.59;40.88;101196.65;1473362;88;21457;-85
2022/09/05 10:19:42;;;;;;;3.90;1.25;;;;;;;24.84;41.39;101198.52;1476961;88;22444;-85
2022/09/05 10:22:40;;;;;;;2.00;1.12;;;;;;;24.92;40.77;101189.58;1480099;88;21456;-85
2022/09/05 10:25:24;;;;;;;4.08;1.00;;;;;;;25.11;41.24;101189.05;1486857;88;21576;-86
2022/09/05 10:28:05;;;;;;;1.17;0.80;;;;;;;25.10;40.64;101192.00;1477961;88;21524;-85
2022/09/05 10:30:39;;;;;;;2.52;0.68;;;;;;;25.46;41.04;101184.92;1477217;88;21480;-85
2022/09/05 10:33:50;;;;;;;2.45;1.20;;;;;;;25.63;39.58;101184.05;1476588;88;21487;-86
2022/09/05 10:36:30;;;;;;;1.82;0.90;;;;;;;25.75;40.42;101179.21;1471481;88;21472;-84
2022/09/05 10:39:24;;;;;;;4.87;1.00;;;;;;;25.76;38.16;101178.17;1477562;88;21436;-86
2022/09/05 10:42:01;;;;;;;2.70;0.82;;;;;;;25.73;37.41;101180.81;1470772;87;22632;-85
2022/09/05 10:44:40;;;;;;;0.90;0.90;;;;;;;25.86;39.35;101183.88;1455983;88;21583;-85
2022/09/05 10:47:56;;;;;;;1.92;1.02;;;;;;;25.81;39.65;101181.85;1478505;88;21524;-85
2022/09/05 10:51:06;;;;;;;1.30;1.00;;;;;;;25.80;39.79;101176.11;1469360;88;21650;-86
2022/09/05 10:53:50;;;;;;;2.25;1.02;;;;;;;25.63;38.75;101171.86;1470830;88;21472;-85
2022/09/05 10:56:27;;;;;;;4.25;1.12;;;;;;;25.61;38.06;101175.87;1468760;88;21612;-86
2022/09/05 10:59:06;;;;;;;1.47;0.82;;;;;;;25.77;38.68;101177.11;1474165;88;21478;-85
2022/09/05 11:01:58;;;;;;;8.83;1.30;;;;;;;26.09;38.81;101164.96;1477757;88;22337;-84
2022/09/05 11:04:36;;;;;;;1.62;1.22;;;;;;;26.13;38.34;101159.09;1476773;88;21473;-85
2022/09/05 11:07:18;;;;;;;1.65;0.78;;;;;;;25.92;37.50;101161.27;1476542;88;21715;-86
2022/09/05 11:10:02;;;;;;;6.85;1.45;;;;;;;26.04;38.33;101154.00;1475348;88;21391;-85
2022/09/05 11:13:09;;;;;;;1.67;0.90;;;;;;;26.13;36.98;101155.03;1471488;88;21561;-85
2022/09/05 11:16:11;;;;;;;0.80;0.70;;;;;;;26.06;36.38;101153.22;1476657;88;21538;-84
2022/09/05 11:19:06;;;;;;;1.92;1.20;;;;;;;25.85;36.56;101159.20;1465589;88;22316;-85
2022/09/05 11:21:56;;;;;;;2.08;1.30;;;;;;;25.79;35.81;101154.67;1473299;88;22344;-85
2022/09/05 11:24:51;;;;;;;1.95;1.20;;;;;;;25.76;37.61;101148.36;1476602;88;21569;-85
2022/09/05 11:27:32;;;;;;;2.17;1.42;;;;;;;25.66;37.50;101143.47;1473430;88;22743;-85
2022/09/05 11:30:15;;;;;;;3.05;1.12;;;;;;;25.87;38.34;101149.77;1473949;88;21471;-86
2022/09/05 11:33:20;;;;;;;2.90;1.30;;;;;;;26.14;37.69;101134.97;1472081;88;21584;-85
2022/09/05 11:35:57;;;;;;;2.27;1.20;;;;;;;26.29;37.72;101133.44;1474936;88;21450;-85
2022/09/05 11:38:46;;;;;;;3.85;1.02;;;;;;;26.61;37.72;101128.23;1476769;88;22464;-86
2022/09/05 11:48:42;;;;;;;5.03;1.12;;;;;;;26.67;35.27;101128.63;1467716;88;22506;-85
2022/09/05 11:51:41;;;;;;;1.90;1.40;;;;;;;25.94;34.78;101128.51;1476702;88;22359;-86
2022/09/05 11:55:04;;;;;;;3.33;1.17;;;;;;;26.03;37.74;101122.50;1475078;88;21538;-86
2022/09/05 11:58:02;;;;;;;1.85;0.85;;;;;;;26.41;37.32;101125.30;1475753;88;21502;-88
2022/09/05 12:00:39;;;;;;;1.70;1.07;;;;;;;26.57;36.59;101122.99;1481156;88;21613;-85
2022/09/05 12:03:20;;;;;;;2.45;2.17;;;;;;;26.51;36.46;101124.77;1476096;88;21501;-85
2022/09/05 12:06:10;;;;;;;2.37;1.20;;;;;;;26.64;36.73;101122.32;1473243;88;21546;-84
2022/09/05 12:08:59;;;;;;;1.72;1.27;;;;;;;26.68;33.62;101116.73;1469646;88;21486;-84
2022/09/05 12:11:46;;;;;;;4.62;1.10;;;;;;;26.83;35.80;101123.84;1474942;88;22315;-85
2022/09/05 12:14:39;;;;;;;1.82;1.12;;;;;;;26.60;33.03;101121.98;1466026;88;21516;-85
2022/09/05 12:17:42;;;;;;;7.30;1.70;;;;;;;26.45;33.96;101122.42;1475857;87;21642;-86
2022/09/05 12:20:32;;;;;;;3.17;1.00;;;;;;;26.58;35.73;101118.66;1468573;88;21488;-83
2022/09/05 12:23:26;;;;;;;3.00;1.02;;;;;;;26.30;32.90;101112.59;1468507;88;21547;-85
2022/09/05 12:26:08;;;;;;;2.87;1.05;;;;;;;26.49;36.37;101115.98;1473511;88;21931;-86
2022/09/05 12:28:51;;;;;;;2.33;1.30;;;;;;;26.48;34.98;101114.34;1471374;88;21524;-83
2022/09/05 12:31:29;;;;;;;4.08;1.90;;;;;;;26.33;33.29;101109.40;1475373;88;21510;-85
2022/09/05 12:33:59;;;;;;;3.22;1.47;;;;;;;26.30;35.28;101107.98;1473554;88;22301;-85
2022/09/05 12:36:34;;;;;;;4.97;2.20;;;;;;;26.13;35.31;101103.49;1466433;88;21465;-85
2022/09/05 12:39:26;;;;;;;2.17;1.40;;;;;;;26.07;35.58;101101.19;1476849;88;21612;-85
2022/09/05 12:42:06;;;;;;;1.92;1.17;;;;;;;26.07;36.11;101099.30;1472709;87;22438;-84
2022/09/05 12:45:10;;;;;;;4.92;1.40;;;;;;;26.00;34.65;101092.31;1480491;88;21435;-87
2022/09/05 12:48:15;;;;;;;3.70;1.72;;;;;;;26.08;35.49;101088.73;1453976;88;21569;-85
2022/09/05 12:51:08;;;;;;;3.77;1.42;;;;;;;26.32;35.55;101084.13;1479191;88;23193;-83
2022/09/05 12:53:55;;;;;;;4.12;1.10;;;;;;;26.57;35.38;101086.34;1475421;88;22258;-83
2022/09/05 12:56:55;;;;;;;4.47;1.12;;;;;;;26.78;34.90;101081.09;1470256;87;21480;-85
2022/09/05 12:59:25;;;;;;;2.00;1.25;;;;;;;26.83;35.62;101083.11;1473288;88;21502;-84
2022/09/05 13:02:06;;;;;;;1.90;1.00;;;;;;;26.49;33.96;101081.53;1477005;88;22382;-84
2022/09/05 13:04:47;;;;;;;2.02;1.25;;;;;;;26.67;33.82;101072.98;1452798;88;21583;-85
2022/09/05 13:07:25;;;;;;;2.52;1.12;;;;;;;26.87;34.39;101077.48;1476876;88;21531;-85
2022/09/05 13:09:56;;;;;;;5.50;1.23;;;;;;;27.52;32.99;101070.88;1475900;88;21450;-83